Time;durP1;ratioP1;P1;durP2;ratioP2;P2;SDS_P1;SDS_P2;PMS_P1;PMS_P2;Temp;Humidity;BMP_temperature;BMP_pressure;BME280_temperature;BME280_humidity;BME280_pressure;Samples;Min_cycle;Max_cycle;Signal;HPM_P1;HPM_P2
2021/06/09 00:01:43;;;;;;;5.25;4.03;;;;;;;;;;4878875;29;20741;-46
2021/06/09 00:04:08;;;;;;;5.18;4.47;;;;;;;;;;4879220;29;20017;-46
2021/06/09 00:06:34;;;;;;;6.32;4.20;;;;;;;;;;4878948;29;20481;-46
2021/06/09 00:08:59;;;;;;;5.25;4.65;;;;;;;;;;4878743;29;20017;-46
2021/06/09 00:11:24;;;;;;;5.35;4.68;;;;;;;;;;4878824;29;20045;-46
2021/06/09 00:13:50;;;;;;;5.35;4.45;;;;;;;;;;4877471;29;20040;-46
2021/06/09 00:16:17;;;;;;;4.72;4.32;;;;;;;;;;4878774;29;20041;-46
2021/06/09 00:18:42;;;;;;;5.78;4.35;;;;;;;;;;4878676;29;20025;-46
2021/06/09 00:21:08;;;;;;;4.45;4.00;;;;;;;;;;4878822;29;20040;-48
2021/06/09 00:23:34;;;;;;;5.30;4.70;;;;;;;;;;4878990;29;20475;-46
2021/06/09 00:26:04;;;;;;;5.25;4.43;;;;;;;;;;4878653;29;20374;-46
2021/06/09 00:28:30;;;;;;;5.63;4.22;;;;;;;;;;4878915;29;20226;-46
2021/06/09 00:30:56;;;;;;;5.93;5.07;;;;;;;;;;4880176;29;20502;-46
2021/06/09 00:33:21;;;;;;;4.70;4.25;;;;;;;;;;4882922;29;20025;-46
2021/06/09 00:35:47;;;;;;;5.20;4.43;;;;;;;;;;4881175;29;20468;-46
2021/06/09 00:38:13;;;;;;;5.97;4.78;;;;;;;;;;4881155;29;20045;-46
2021/06/09 00:40:38;;;;;;;4.38;3.88;;;;;;;;;;4882626;29;20058;-46
2021/06/09 00:43:06;;;;;;;4.75;3.85;;;;;;;;;;4882373;29;20021;-46
2021/06/09 00:45:33;;;;;;;7.05;4.75;;;;;;;;;;4882442;29;20036;-46
2021/06/09 00:47:58;;;;;;;5.07;4.35;;;;;;;;;;4882276;29;20036;-46
2021/06/09 00:50:24;;;;;;;8.15;3.80;;;;;;;;;;4882125;29;20420;-46
2021/06/09 00:52:49;;;;;;;5.13;4.63;;;;;;;;;;4882091;29;20089;-46
2021/06/09 00:55:15;;;;;;;6.43;4.57;;;;;;;;;;4882173;29;20045;-48
2021/06/09 00:57:40;;;;;;;6.50;4.22;;;;;;;;;;4882033;29;20029;-46
2021/06/09 01:00:07;;;;;;;5.50;4.28;;;;;;;;;;4882049;29;20044;-46
2021/06/09 01:02:32;;;;;;;3.85;3.55;;;;;;;;;;4881137;29;20048;-46
2021/06/09 01:04:57;;;;;;;6.18;4.55;;;;;;;;;;4881963;29;20632;-46
2021/06/09 01:07:23;;;;;;;8.90;4.32;;;;;;;;;;4881914;29;20384;-46
2021/06/09 01:09:48;;;;;;;5.88;4.47;;;;;;;;;;4882097;29;20039;-46
2021/06/09 01:12:14;;;;;;;4.50;3.72;;;;;;;;;;4881828;29;20084;-46
2021/06/09 01:14:39;;;;;;;9.05;4.28;;;;;;;;;;4881766;29;20068;-46
2021/06/09 01:17:05;;;;;;;9.88;4.35;;;;;;;;;;4881838;29;20112;-46
2021/06/09 01:19:30;;;;;;;4.22;3.83;;;;;;;;;;4881722;29;20032;-46
2021/06/09 01:21:55;;;;;;;6.80;4.00;;;;;;;;;;4881642;29;20021;-46
2021/06/09 01:24:21;;;;;;;5.95;4.47;;;;;;;;;;4881734;29;20036;-46
2021/06/09 01:26:46;;;;;;;9.93;4.55;;;;;;;;;;4881523;29;20021;-46
2021/06/09 01:29:12;;;;;;;4.90;4.07;;;;;;;;;;4881573;29;20036;-46
2021/06/09 01:31:38;;;;;;;5.25;4.03;;;;;;;;;;4881542;29;20092;-46
2021/06/09 01:34:05;;;;;;;5.95;4.20;;;;;;;;;;4881659;29;20033;-46
2021/06/09 01:36:40;;;;;;;5.22;3.95;;;;;;;;;;4881455;29;20032;-45
2021/06/09 01:39:14;;;;;;;5.03;4.53;;;;;;;;;;4881418;29;20081;-45
2021/06/09 01:41:39;;;;;;;;;;;;;;;;;;4881901;29;20035;-46
2021/06/09 01:44:04;;;;;;;13.48;4.70;;;;;;;;;;4881371;29;20010;-46
2021/06/09 01:46:30;;;;;;;9.05;3.88;;;;;;;;;;4881330;29;20403;-46
2021/06/09 01:48:55;;;;;;;8.00;4.80;;;;;;;;;;4881156;29;20025;-45
2021/06/09 01:51:21;;;;;;;6.57;5.07;;;;;;;;;;4881388;29;20112;-45
2021/06/09 01:53:47;;;;;;;6.47;4.15;;;;;;;;;;4881377;29;20032;-46
2021/06/09 01:56:12;;;;;;;4.30;3.90;;;;;;;;;;4881056;29;20524;-45
2021/06/09 01:58:37;;;;;;;6.22;4.53;;;;;;;;;;4881344;29;20033;-45
2021/06/09 02:01:04;;;;;;;4.65;4.20;;;;;;;;;;4881176;29;20447;-45
2021/06/09 02:03:29;;;;;;;5.32;4.53;;;;;;;;;;4881192;29;20029;-45
2021/06/09 02:05:55;;;;;;;9.38;4.60;;;;;;;;;;4880977;29;20154;-46
2021/06/09 02:08:20;;;;;;;6.90;3.83;;;;;;;;;;4881109;29;20376;-45
2021/06/09 02:10:45;;;;;;;5.57;4.35;;;;;;;;;;4880694;29;20096;-46
2021/06/09 02:13:15;;;;;;;6.43;4.30;;;;;;;;;;4879957;29;20017;-45
2021/06/09 02:15:42;;;;;;;6.80;3.92;;;;;;;;;;4880833;29;20037;-45
2021/06/09 02:18:14;;;;;;;7.10;4.35;;;;;;;;;;4880770;29;20050;-45
2021/06/09 02:20:44;;;;;;;6.03;3.97;;;;;;;;;;4880621;29;20036;-46
2021/06/09 02:23:11;;;;;;;4.60;3.63;;;;;;;;;;4880684;29;20041;-45
2021/06/09 02:25:39;;;;;;;4.82;4.18;;;;;;;;;;4880943;29;20032;-45
2021/06/09 02:28:05;;;;;;;4.90;4.45;;;;;;;;;;4880499;29;20030;-45
2021/06/09 02:30:31;;;;;;;6.03;4.05;;;;;;;;;;4880410;29;20480;-45
2021/06/09 02:32:56;;;;;;;4.20;3.80;;;;;;;;;;4880451;29;20033;-46
2021/06/09 02:35:22;;;;;;;7.82;4.13;;;;;;;;;;4880775;29;20112;-46
2021/06/09 02:37:49;;;;;;;7.30;4.47;;;;;;;;;;4880218;29;20045;-46
2021/06/09 02:40:14;;;;;;;8.70;4.30;;;;;;;;;;4880559;29;20089;-46
2021/06/09 02:42:40;;;;;;;4.97;3.92;;;;;;;;;;4880251;29;20060;-46
2021/06/09 02:45:09;;;;;;;4.03;3.63;;;;;;;;;;4880485;29;20112;-45
2021/06/09 02:47:38;;;;;;;6.15;4.05;;;;;;;;;;4878966;29;20484;-45
2021/06/09 02:50:04;;;;;;;7.85;4.32;;;;;;;;;;4878922;29;20036;-46
2021/06/09 02:52:45;;;;;;;4.13;3.58;;;;;;;;;;4879924;29;20039;-45
2021/06/09 02:55:46;;;;;;;5.60;4.07;;;;;;;;;;4879946;29;20033;-47
2021/06/09 02:58:11;;;;;;;9.90;4.68;;;;;;;;;;4896291;29;20032;-46
2021/06/09 03:00:51;;;;;;;4.93;3.95;;;;;;;;;;4883599;29;20354;-46
2021/06/09 03:03:28;;;;;;;4.45;4.03;;;;;;;;;;4879942;29;20029;-46
2021/06/09 03:05:54;;;;;;;4.72;4.28;;;;;;;;;;4879850;29;20032;-46
2021/06/09 03:08:27;;;;;;;5.40;4.57;;;;;;;;;;4880164;29;20021;-46
2021/06/09 03:11:01;;;;;;;4.97;4.43;;;;;;;;;;4879715;29;20044;-46
2021/06/09 03:13:28;;;;;;;4.43;3.78;;;;;;;;;;4879709;29;20036;-46
2021/06/09 03:15:57;;;;;;;4.90;4.03;;;;;;;;;;4879619;29;20021;-46
2021/06/09 03:18:23;;;;;;;5.78;4.50;;;;;;;;;;4879935;29;20073;-46
2021/06/09 03:21:02;;;;;;;7.90;4.82;;;;;;;;;;4879710;29;20471;-46
2021/06/09 03:23:43;;;;;;;7.70;4.50;;;;;;;;;;4879540;29;20047;-46
2021/06/09 03:26:14;;;;;;;4.35;3.80;;;;;;;;;;4879614;29;20134;-46
2021/06/09 03:28:43;;;;;;;5.65;4.75;;;;;;;;;;4879583;29;20076;-46
2021/06/09 03:31:11;;;;;;;4.35;3.95;;;;;;;;;;4878193;29;20097;-46
2021/06/09 03:33:40;;;;;;;6.38;4.35;;;;;;;;;;4879661;29;20057;-46
2021/06/09 03:36:10;;;;;;;11.07;4.00;;;;;;;;;;4879361;29;20024;-46
2021/06/09 03:38:49;;;;;;;4.40;3.83;;;;;;;;;;4879150;29;20113;-46
2021/06/09 03:41:16;;;;;;;5.00;3.88;;;;;;;;;;4879179;29;20036;-46
2021/06/09 03:43:45;;;;;;;5.18;3.88;;;;;;;;;;4879400;29;20021;-50
2021/06/09 03:46:11;;;;;;;4.63;4.18;;;;;;;;;;4879187;29;20045;-47
2021/06/09 03:48:38;;;;;;;4.45;3.75;;;;;;;;;;4879135;29;20028;-46
2021/06/09 03:51:04;;;;;;;4.50;4.10;;;;;;;;;;4879250;29;20388;-47
2021/06/09 03:53:31;;;;;;;4.45;3.75;;;;;;;;;;4879099;29;20021;-47
2021/06/09 03:55:58;;;;;;;6.80;3.75;;;;;;;;;;4878949;29;20396;-46
2021/06/09 03:58:25;;;;;;;6.10;4.07;;;;;;;;;;4879036;29;20025;-46
2021/06/09 04:00:51;;;;;;;5.43;3.92;;;;;;;;;;4879007;29;20068;-46
2021/06/09 04:03:18;;;;;;;4.70;4.28;;;;;;;;;;4878880;29;20104;-46
2021/06/09 04:05:43;;;;;;;4.93;3.40;;;;;;;;;;4878346;29;20036;-46
2021/06/09 04:08:13;;;;;;;9.35;4.97;;;;;;;;;;4877818;29;20449;-46
2021/06/09 04:10:40;;;;;;;4.05;3.58;;;;;;;;;;4879000;29;20429;-46
2021/06/09 04:13:06;;;;;;;3.95;3.55;;;;;;;;;;4878941;29;20028;-46
2021/06/09 04:15:31;;;;;;;8.77;4.18;;;;;;;;;;4878834;29;20537;-46
2021/06/09 04:17:58;;;;;;;4.72;3.90;;;;;;;;;;4878959;29;20021;-46
2021/06/09 04:20:24;;;;;;;4.65;3.92;;;;;;;;;;4878883;29;20029;-46
2021/06/09 04:22:50;;;;;;;5.10;3.90;;;;;;;;;;4878677;29;20036;-45
2021/06/09 04:25:16;;;;;;;5.38;4.13;;;;;;;;;;4879008;29;20032;-46
2021/06/09 04:27:43;;;;;;;4.63;4.18;;;;;;;;;;4878587;29;20845;-46
2021/06/09 04:30:09;;;;;;;4.43;3.97;;;;;;;;;;4878988;29;20418;-46
2021/06/09 04:32:47;;;;;;;4.07;3.33;;;;;;;;;;4878647;29;20037;-46
2021/06/09 04:35:12;;;;;;;5.95;3.60;;;;;;;;;;4878682;29;20037;-46
2021/06/09 04:37:38;;;;;;;8.98;3.83;;;;;;;;;;4878516;29;20049;-46
2021/06/09 04:40:03;;;;;;;4.47;4.07;;;;;;;;;;4878499;29;20727;-46
2021/06/09 04:42:29;;;;;;;5.10;4.47;;;;;;;;;;4878877;29;20033;-46
2021/06/09 04:44:54;;;;;;;5.05;3.70;;;;;;;;;;4877279;29;20025;-46
2021/06/09 04:47:19;;;;;;;6.03;3.50;;;;;;;;;;4878616;29;20025;-46
2021/06/09 04:49:46;;;;;;;4.47;3.88;;;;;;;;;;4878762;29;20052;-46
2021/06/09 04:52:12;;;;;;;4.97;3.72;;;;;;;;;;4878325;29;20149;-46
2021/06/09 04:54:38;;;;;;;7.07;4.57;;;;;;;;;;4878566;29;20064;-46
2021/06/09 04:57:04;;;;;;;6.18;4.00;;;;;;;;;;4878437;29;20057;-46
2021/06/09 04:59:30;;;;;;;4.82;3.60;;;;;;;;;;4878394;29;20029;-46
2021/06/09 05:01:55;;;;;;;3.75;3.35;;;;;;;;;;4878364;29;20072;-46
2021/06/09 05:04:21;;;;;;;6.03;4.20;;;;;;;;;;4878663;29;20037;-46
2021/06/09 05:06:46;;;;;;;4.47;4.07;;;;;;;;;;4878541;29;20113;-46
2021/06/09 05:09:13;;;;;;;6.00;3.80;;;;;;;;;;4878622;29;20032;-46
2021/06/09 05:11:48;;;;;;;5.18;3.97;;;;;;;;;;4878288;29;20033;-46
2021/06/09 05:14:15;;;;;;;3.90;3.50;;;;;;;;;;4877093;29;20029;-46
2021/06/09 05:16:42;;;;;;;15.93;4.38;;;;;;;;;;4878181;29;20433;-46
2021/06/09 05:19:09;;;;;;;4.47;4.07;;;;;;;;;;4881815;29;20073;-46
2021/06/09 05:21:35;;;;;;;6.45;4.03;;;;;;;;;;4881982;29;20025;-46
2021/06/09 05:24:01;;;;;;;4.70;4.30;;;;;;;;;;4880716;29;20132;-46
2021/06/09 05:26:27;;;;;;;4.50;3.72;;;;;;;;;;4881637;29;20025;-46
2021/06/09 05:28:55;;;;;;;7.80;3.90;;;;;;;;;;4881454;29;20025;-46
2021/06/09 05:31:23;;;;;;;4.20;3.80;;;;;;;;;;4881806;29;20037;-46
2021/06/09 05:33:49;;;;;;;3.97;3.53;;;;;;;;;;4881764;29;20033;-46
2021/06/09 05:36:15;;;;;;;3.97;3.60;;;;;;;;;;4881465;29;20061;-45
2021/06/09 05:38:42;;;;;;;6.43;3.88;;;;;;;;;;4881273;29;20091;-46
2021/06/09 05:41:07;;;;;;;5.45;3.42;;;;;;;;;;4881419;29;20068;-46
2021/06/09 05:43:33;;;;;;;4.60;4.20;;;;;;;;;;4881600;29;20052;-45
2021/06/09 05:46:04;;;;;;;9.00;4.03;;;;;;;;;;4881575;29;20512;-46
2021/06/09 05:48:29;;;;;;;4.15;3.70;;;;;;;;;;4881254;29;20048;-46
2021/06/09 05:50:56;;;;;;;4.72;4.30;;;;;;;;;;4881264;29;20460;-46
2021/06/09 05:53:22;;;;;;;5.75;3.75;;;;;;;;;;4881214;29;20513;-45
2021/06/09 05:55:48;;;;;;;5.10;3.90;;;;;;;;;;4881003;29;20044;-45
2021/06/09 05:58:17;;;;;;;7.80;4.10;;;;;;;;;;4881333;29;20468;-46
2021/06/09 06:00:44;;;;;;;5.78;3.78;;;;;;;;;;4880108;29;20037;-45
2021/06/09 06:03:10;;;;;;;4.38;3.30;;;;;;;;;;4881032;29;20048;-46
2021/06/09 06:05:36;;;;;;;7.38;3.75;;;;;;;;;;4880911;29;20017;-47
2021/06/09 06:08:02;;;;;;;6.60;3.92;;;;;;;;;;4880902;29;20057;-46
2021/06/09 06:10:27;;;;;;;4.72;3.90;;;;;;;;;;4881164;29;20021;-46
2021/06/09 06:12:53;;;;;;;5.15;4.05;;;;;;;;;;4880815;29;20071;-47
2021/06/09 06:15:18;;;;;;;11.27;4.13;;;;;;;;;;4880811;29;20021;-46
2021/06/09 06:17:45;;;;;;;4.30;3.83;;;;;;;;;;4880587;29;20062;-46
2021/06/09 06:20:18;;;;;;;4.13;3.80;;;;;;;;;;4879541;29;20069;-46
2021/06/09 06:22:44;;;;;;;3.47;3.13;;;;;;;;;;4880878;29;20063;-46
2021/06/09 06:25:12;;;;;;;4.53;3.92;;;;;;;;;;4880602;29;20029;-46
2021/06/09 06:27:38;;;;;;;6.38;4.32;;;;;;;;;;4878846;29;20035;-46
2021/06/09 06:30:04;;;;;;;7.20;4.03;;;;;;;;;;4880178;29;20058;-46
2021/06/09 06:32:29;;;;;;;8.57;4.57;;;;;;;;;;4880514;29;20513;-46
2021/06/09 06:34:55;;;;;;;5.57;4.15;;;;;;;;;;4880650;29;20017;-46
2021/06/09 06:37:22;;;;;;;6.25;3.92;;;;;;;;;;4880251;29;20389;-46
2021/06/09 06:39:47;;;;;;;11.43;4.95;;;;;;;;;;4880318;29;20624;-46
2021/06/09 06:42:13;;;;;;;4.72;3.80;;;;;;;;;;4880353;29;20043;-46
2021/06/09 06:44:40;;;;;;;14.07;5.03;;;;;;;;;;4880316;29;20017;-46
2021/06/09 06:47:06;;;;;;;5.03;3.97;;;;;;;;;;4878877;29;20037;-46
2021/06/09 06:49:32;;;;;;;4.72;4.22;;;;;;;;;;4880259;29;20032;-46
2021/06/09 06:51:57;;;;;;;4.55;3.90;;;;;;;;;;4880304;29;20037;-46
2021/06/09 06:54:24;;;;;;;6.40;4.35;;;;;;;;;;4880061;29;20017;-46
2021/06/09 06:56:50;;;;;;;5.60;4.13;;;;;;;;;;4880080;29;20028;-46
2021/06/09 06:59:16;;;;;;;5.10;4.13;;;;;;;;;;4880312;29;20476;-47
2021/06/09 07:01:42;;;;;;;6.38;3.55;;;;;;;;;;4880241;29;20067;-46
2021/06/09 07:04:07;;;;;;;5.05;4.30;;;;;;;;;;4879914;29;20024;-46
2021/06/09 07:06:34;;;;;;;5.03;3.53;;;;;;;;;;4878763;29;20036;-46
2021/06/09 07:08:59;;;;;;;6.30;4.38;;;;;;;;;;4879716;29;20461;-46
2021/06/09 07:11:25;;;;;;;5.85;4.22;;;;;;;;;;4880055;29;20120;-46
2021/06/09 07:13:51;;;;;;;5.00;3.40;;;;;;;;;;4878807;29;20026;-46
2021/06/09 07:16:18;;;;;;;9.55;4.00;;;;;;;;;;4879683;29;20503;-46
2021/06/09 07:18:46;;;;;;;4.30;3.90;;;;;;;;;;4879568;29;20028;-46
2021/06/09 07:21:12;;;;;;;8.75;4.43;;;;;;;;;;4879708;29;20029;-46
2021/06/09 07:23:38;;;;;;;4.38;3.97;;;;;;;;;;4879888;29;20417;-46
2021/06/09 07:26:05;;;;;;;6.15;4.05;;;;;;;;;;4879707;29;20084;-46
2021/06/09 07:28:32;;;;;;;5.60;4.20;;;;;;;;;;4879713;29;20021;-46
2021/06/09 07:30:58;;;;;;;9.60;4.05;;;;;;;;;;4879365;29;20377;-46
2021/06/09 07:33:23;;;;;;;7.45;3.72;;;;;;;;;;4879496;29;20350;-46
2021/06/09 07:35:49;;;;;;;4.35;3.95;;;;;;;;;;4879282;29;20101;-47
2021/06/09 07:38:16;;;;;;;12.40;4.82;;;;;;;;;;4879240;29;20139;-47
2021/06/09 07:40:42;;;;;;;4.28;3.63;;;;;;;;;;4879440;29;20104;-46
2021/06/09 07:43:10;;;;;;;6.47;4.20;;;;;;;;;;4877886;29;20112;-46
2021/06/09 07:45:37;;;;;;;4.90;4.32;;;;;;;;;;4879264;29;20043;-46
2021/06/09 07:48:03;;;;;;;5.15;4.10;;;;;;;;;;4879346;29;20025;-47
2021/06/09 07:50:32;;;;;;;10.57;3.97;;;;;;;;;;4879382;29;20055;-46
2021/06/09 07:53:06;;;;;;;5.82;4.53;;;;;;;;;;4879323;29;20093;-46
2021/06/09 07:55:34;;;;;;;7.78;4.72;;;;;;;;;;4879040;29;20029;-46
2021/06/09 07:58:01;;;;;;;6.43;4.45;;;;;;;;;;4879235;29;20388;-46
2021/06/09 08:00:27;;;;;;;6.03;3.83;;;;;;;;;;4879044;29;20036;-46
2021/06/09 08:02:54;;;;;;;5.95;4.07;;;;;;;;;;4878967;29;20021;-46
2021/06/09 08:05:20;;;;;;;5.72;4.22;;;;;;;;;;4878981;29;20036;-46
2021/06/09 08:07:45;;;;;;;4.45;4.05;;;;;;;;;;4878841;29;20040;-46
2021/06/09 08:10:11;;;;;;;6.68;4.55;;;;;;;;;;4879234;29;20040;-47
2021/06/09 08:12:37;;;;;;;5.43;4.60;;;;;;;;;;4879033;29;20040;-47
2021/06/09 08:15:03;;;;;;;4.82;4.15;;;;;;;;;;4878711;29;20044;-46
2021/06/09 08:17:29;;;;;;;7.55;4.32;;;;;;;;;;4878833;29;20036;-47
2021/06/09 08:19:54;;;;;;;5.25;4.47;;;;;;;;;;4877393;29;20037;-47
2021/06/09 08:22:20;;;;;;;5.90;4.07;;;;;;;;;;4878851;29;20053;-46
2021/06/09 08:24:45;;;;;;;4.68;4.18;;;;;;;;;;4878598;29;20107;-52
2021/06/09 08:27:11;;;;;;;3.67;3.38;;;;;;;;;;4878658;29;20021;-47
2021/06/09 08:29:39;;;;;;;4.57;4.18;;;;;;;;;;4878784;29;20037;-47
2021/06/09 08:32:05;;;;;;;5.40;4.57;;;;;;;;;;4878824;29;20056;-46
2021/06/09 08:34:31;;;;;;;4.78;4.07;;;;;;;;;;4878633;29;20604;-46
2021/06/09 08:36:56;;;;;;;5.97;4.28;;;;;;;;;;4877233;29;20119;-47
2021/06/09 08:39:22;;;;;;;6.40;3.95;;;;;;;;;;4878876;29;20350;-46
2021/06/09 08:41:49;;;;;;;3.95;3.53;;;;;;;;;;4878579;29;20476;-47
2021/06/09 08:44:17;;;;;;;4.85;3.60;;;;;;;;;;4878576;29;20480;-47
2021/06/09 08:46:42;;;;;;;6.32;3.95;;;;;;;;;;4878527;29;20029;-46
2021/06/09 08:49:08;;;;;;;4.22;3.55;;;;;;;;;;4878400;29;20029;-47
2021/06/09 08:51:35;;;;;;;7.65;4.22;;;;;;;;;;4879532;29;20033;-47
2021/06/09 08:54:02;;;;;;;9.45;4.78;;;;;;;;;;4882466;29;20093;-46
2021/06/09 08:56:28;;;;;;;5.10;4.00;;;;;;;;;;4882185;29;20029;-46
2021/06/09 08:58:53;;;;;;;8.07;4.68;;;;;;;;;;4882330;29;20021;-47
2021/06/09 09:01:19;;;;;;;8.75;5.13;;;;;;;;;;4882348;29;20025;-46
2021/06/09 09:03:45;;;;;;;5.30;4.50;;;;;;;;;;4880725;29;20037;-47
2021/06/09 09:06:11;;;;;;;5.40;4.80;;;;;;;;;;4882422;29;20029;-46
2021/06/09 09:08:37;;;;;;;5.40;4.57;;;;;;;;;;4882161;29;20033;-47
2021/06/09 09:11:03;;;;;;;6.00;5.25;;;;;;;;;;4881863;29;20424;-49
2021/06/09 09:13:28;;;;;;;4.75;4.22;;;;;;;;;;4881043;29;20086;-46
2021/06/09 09:15:55;;;;;;;4.80;4.30;;;;;;;;;;4881673;29;20052;-46
2021/06/09 09:18:20;;;;;;;5.45;4.93;;;;;;;;;;4880753;29;20111;-46
2021/06/09 09:20:47;;;;;;;5.50;4.90;;;;;;;;;;4881666;29;20117;-46
2021/06/09 09:23:31;;;;;;;4.88;4.38;;;;;;;;;;4881767;29;20033;-47
2021/06/09 09:26:16;;;;;;;6.32;5.18;;;;;;;;;;4881691;29;20033;-47
2021/06/09 09:28:41;;;;;;;5.32;4.40;;;;;;;;;;4881539;29;20033;-46
2021/06/09 09:31:08;;;;;;;5.53;4.72;;;;;;;;;;4881710;29;20041;-46
2021/06/09 09:33:34;;;;;;;8.27;5.18;;;;;;;;;;4881628;29;20108;-47
2021/06/09 09:36:16;;;;;;;5.60;4.97;;;;;;;;;;4881463;29;20037;-47
2021/06/09 09:38:41;;;;;;;5.30;4.75;;;;;;;;;;4880097;29;20146;-47
2021/06/09 09:41:08;;;;;;;6.68;5.85;;;;;;;;;;4881333;29;20082;-47
2021/06/09 09:43:54;;;;;;;5.90;5.18;;;;;;;;;;4881400;29;20127;-47
2021/06/09 09:46:21;;;;;;;5.40;4.65;;;;;;;;;;4881145;29;20044;-47
2021/06/09 09:49:17;;;;;;;7.18;4.72;;;;;;;;;;4881238;29;20379;-46
2021/06/09 09:51:47;;;;;;;6.93;5.43;;;;;;;;;;4884603;29;20053;-46
2021/06/09 09:54:14;;;;;;;6.95;5.50;;;;;;;;;;4881270;29;20440;-47
2021/06/09 09:56:39;;;;;;;6.55;5.85;;;;;;;;;;4881239;29;20472;-47
2021/06/09 09:59:06;;;;;;;5.43;4.93;;;;;;;;;;4881022;29;20040;-46
2021/06/09 10:01:33;;;;;;;6.30;5.35;;;;;;;;;;4881383;29;20021;-46
2021/06/09 10:03:59;;;;;;;6.15;5.03;;;;;;;;;;4879773;29;20476;-46
2021/06/09 10:06:26;;;;;;;10.07;5.50;;;;;;;;;;4881230;29;20074;-46
2021/06/09 10:08:52;;;;;;;6.65;5.40;;;;;;;;;;4881090;29;20044;-46
2021/06/09 10:11:18;;;;;;;6.22;5.47;;;;;;;;;;4880907;29;20021;-47
2021/06/09 10:13:44;;;;;;;8.40;5.03;;;;;;;;;;4880768;29;20041;-46
2021/06/09 10:16:22;;;;;;;5.47;4.97;;;;;;;;;;4880787;29;20018;-46
2021/06/09 10:19:01;;;;;;;6.68;5.35;;;;;;;;;;4880735;29;20064;-46
2021/06/09 10:21:27;;;;;;;7.93;5.82;;;;;;;;;;4880714;29;20036;-47
2021/06/09 10:23:57;;;;;;;11.48;5.72;;;;;;;;;;4879357;29;20029;-46
2021/06/09 10:26:23;;;;;;;5.68;4.85;;;;;;;;;;4880640;29;20025;-46
2021/06/09 10:28:59;;;;;;;6.50;5.80;;;;;;;;;;4880382;29;20040;-46
2021/06/09 10:31:25;;;;;;;5.65;4.93;;;;;;;;;;4880756;29;20048;-46
2021/06/09 10:33:51;;;;;;;6.50;5.65;;;;;;;;;;4880669;29;20442;-47
2021/06/09 10:36:17;;;;;;;9.32;5.80;;;;;;;;;;4880502;29;20120;-47
2021/06/09 10:38:44;;;;;;;9.05;5.82;;;;;;;;;;4880313;29;20132;-46
2021/06/09 10:41:10;;;;;;;5.38;4.85;;;;;;;;;;4880225;29;20032;-47
2021/06/09 10:43:36;;;;;;;6.43;5.43;;;;;;;;;;4880412;29;20069;-47
2021/06/09 10:46:02;;;;;;;5.32;4.82;;;;;;;;;;4880220;29;20063;-46
2021/06/09 10:48:28;;;;;;;5.78;4.45;;;;;;;;;;4880209;29;20131;-46
2021/06/09 10:50:54;;;;;;;5.68;5.00;;;;;;;;;;4880114;29;20140;-46
2021/06/09 10:53:19;;;;;;;5.68;4.78;;;;;;;;;;4878979;29;20025;-47
2021/06/09 10:55:45;;;;;;;6.35;5.45;;;;;;;;;;4880045;29;20048;-47
2021/06/09 10:58:10;;;;;;;6.30;5.00;;;;;;;;;;4880247;29;20040;-46
2021/06/09 11:00:36;;;;;;;6.75;4.97;;;;;;;;;;4880315;29;20116;-46
2021/06/09 11:03:02;;;;;;;6.75;4.57;;;;;;;;;;4879931;29;20464;-46
2021/06/09 11:05:28;;;;;;;8.13;5.72;;;;;;;;;;4879970;29;20057;-47
2021/06/09 11:07:54;;;;;;;6.03;5.05;;;;;;;;;;4879817;29;20056;-46
2021/06/09 11:10:31;;;;;;;10.52;5.22;;;;;;;;;;4880176;29;20033;-47
2021/06/09 11:12:57;;;;;;;8.00;5.13;;;;;;;;;;4879968;29;20120;-46
2021/06/09 11:15:24;;;;;;;6.68;5.22;;;;;;;;;;4878292;29;20100;-47
2021/06/09 11:17:52;;;;;;;11.82;5.35;;;;;;;;;;4879822;29;20036;-46
2021/06/09 11:20:20;;;;;;;8.80;6.20;;;;;;;;;;4879751;29;20033;-47
2021/06/09 11:22:46;;;;;;;6.93;6.03;;;;;;;;;;4879735;29;20084;-46
2021/06/09 11:25:13;;;;;;;6.22;5.53;;;;;;;;;;4879653;29;20017;-46
2021/06/09 11:28:08;;;;;;;9.63;5.65;;;;;;;;;;4879544;29;20044;-46
2021/06/09 11:30:33;;;;;;;5.97;5.38;;;;;;;;;;4882695;29;20408;-46
2021/06/09 11:33:07;;;;;;;6.70;6.03;;;;;;;;;;4879323;29;20033;-46
2021/06/09 11:35:46;;;;;;;6.88;5.80;;;;;;;;;;4879466;29;20040;-46
2021/06/09 11:38:11;;;;;;;7.13;5.50;;;;;;;;;;4879046;29;20061;-47
2021/06/09 11:40:48;;;;;;;6.05;5.20;;;;;;;;;;4879331;29;20048;-46
2021/06/09 11:43:22;;;;;;;6.13;5.53;;;;;;;;;;4879277;29;20058;-46
2021/06/09 11:45:53;;;;;;;7.63;5.93;;;;;;;;;;4879181;29;20108;-46
2021/06/09 11:48:21;;;;;;;7.05;5.93;;;;;;;;;;4879215;29;20425;-46
2021/06/09 11:50:47;;;;;;;8.55;5.38;;;;;;;;;;4879191;29;20024;-46
2021/06/09 11:53:13;;;;;;;17.25;6.55;;;;;;;;;;4879084;29;20057;-47
2021/06/09 11:55:42;;;;;;;5.60;4.90;;;;;;;;;;4879184;29;20043;-46
2021/06/09 11:58:14;;;;;;;6.75;5.53;;;;;;;;;;4879314;29;20037;-46
2021/06/09 12:00:57;;;;;;;5.47;4.97;;;;;;;;;;4878984;29;20029;-46
2021/06/09 12:03:23;;;;;;;5.97;5.38;;;;;;;;;;4879047;29;20141;-46
2021/06/09 12:05:48;;;;;;;6.18;5.53;;;;;;;;;;4877713;29;20115;-46
2021/06/09 12:08:13;;;;;;;5.32;4.82;;;;;;;;;;4879183;29;20029;-47
2021/06/09 12:10:40;;;;;;;6.78;4.60;;;;;;;;;;4878909;29;20040;-52
2021/06/09 12:13:06;;;;;;;6.03;5.40;;;;;;;;;;4878774;29;20048;-47
2021/06/09 12:15:31;;;;;;;6.90;5.78;;;;;;;;;;4878837;29;20017;-46
2021/06/09 12:17:57;;;;;;;8.60;5.50;;;;;;;;;;4878783;29;20033;-46
2021/06/09 12:20:22;;;;;;;6.22;5.60;;;;;;;;;;4878868;29;20021;-46
2021/06/09 12:22:49;;;;;;;8.73;5.60;;;;;;;;;;4878990;29;20362;-46
2021/06/09 12:25:24;;;;;;;6.18;5.22;;;;;;;;;;4878671;29;20484;-46
2021/06/09 12:28:06;;;;;;;6.78;5.15;;;;;;;;;;4878116;29;20033;-47
2021/06/09 12:30:33;;;;;;;8.18;6.22;;;;;;;;;;4878766;29;20037;-47
2021/06/09 12:32:58;;;;;;;7.03;5.90;;;;;;;;;;4878790;29;20071;-46
2021/06/09 12:35:24;;;;;;;9.60;6.95;;;;;;;;;;4878956;29;20057;-46
2021/06/09 12:37:54;;;;;;;7.50;6.60;;;;;;;;;;4878382;29;20091;-46
2021/06/09 12:40:24;;;;;;;10.13;6.05;;;;;;;;;;4878605;29;20048;-48
2021/06/09 12:42:51;;;;;;;11.00;6.47;;;;;;;;;;4878478;29;20040;-46
2021/06/09 12:45:18;;;;;;;8.57;6.88;;;;;;;;;;4878551;29;20037;-47
2021/06/09 12:47:44;;;;;;;12.07;7.25;;;;;;;;;;4877324;29;20520;-47
2021/06/09 12:50:12;;;;;;;10.50;7.13;;;;;;;;;;4878457;29;20099;-47
2021/06/09 12:52:38;;;;;;;12.23;7.55;;;;;;;;;;4878442;29;20033;-47
2021/06/09 12:55:08;;;;;;;9.40;6.20;;;;;;;;;;4878717;29;20033;-50
2021/06/09 12:57:34;;;;;;;8.45;7.20;;;;;;;;;;4878659;29;20029;-47
2021/06/09 13:00:00;;;;;;;7.68;6.88;;;;;;;;;;4878387;29;20038;-47
2021/06/09 13:02:25;;;;;;;10.70;6.82;;;;;;;;;;4878754;29;20021;-46
2021/06/09 13:04:52;;;;;;;12.85;6.25;;;;;;;;;;4878313;29;20502;-46
2021/06/09 13:07:25;;;;;;;7.45;5.50;;;;;;;;;;4878651;29;20029;-46
2021/06/09 13:09:55;;;;;;;9.40;5.80;;;;;;;;;;4878601;29;20041;-47
2021/06/09 13:12:24;;;;;;;9.38;5.85;;;;;;;;;;4878269;29;20045;-46
2021/06/09 13:14:50;;;;;;;9.93;6.78;;;;;;;;;;4878339;29;20052;-49
2021/06/09 13:17:15;;;;;;;7.25;6.22;;;;;;;;;;4878315;29;20388;-47
2021/06/09 13:19:41;;;;;;;8.15;6.65;;;;;;;;;;4878338;29;20384;-46
2021/06/09 13:22:06;;;;;;;7.90;6.88;;;;;;;;;;4878539;29;20464;-46
2021/06/09 13:24:34;;;;;;;8.07;7.00;;;;;;;;;;4878557;29;20417;-46
2021/06/09 13:27:17;;;;;;;8.38;6.97;;;;;;;;;;4878080;29;20028;-46
2021/06/09 13:29:42;;;;;;;9.82;7.85;;;;;;;;;;4878272;29;20029;-46
2021/06/09 13:32:17;;;;;;;8.85;7.45;;;;;;;;;;4878317;29;20065;-46
2021/06/09 13:34:47;;;;;;;8.48;7.55;;;;;;;;;;4877073;29;20033;-46
2021/06/09 13:37:15;;;;;;;9.27;6.70;;;;;;;;;;4878376;29;20073;-46
2021/06/09 13:39:42;;;;;;;10.70;8.27;;;;;;;;;;4881517;29;20062;-46
2021/06/09 13:42:08;;;;;;;9.43;8.13;;;;;;;;;;4881678;29;20029;-46
2021/06/09 13:44:37;;;;;;;9.52;6.93;;;;;;;;;;4881733;29;20486;-47
2021/06/09 13:47:03;;;;;;;12.25;7.70;;;;;;;;;;4881230;29;20032;-46
2021/06/09 13:49:30;;;;;;;10.68;5.72;;;;;;;;;;4881389;29;20025;-47
2021/06/09 13:51:56;;;;;;;11.30;6.13;;;;;;;;;;4881469;29;20109;-46
2021/06/09 13:54:29;;;;;;;6.00;5.38;;;;;;;;;;4881525;29;20048;-45
2021/06/09 13:56:54;;;;;;;5.93;5.05;;;;;;;;;;4881160;29;20048;-46
2021/06/09 13:59:24;;;;;;;5.97;4.05;;;;;;;;;;4881236;29;20029;-46
2021/06/09 14:01:50;;;;;;;4.22;3.47;;;;;;;;;;4879903;29;20072;-46
2021/06/09 14:04:17;;;;;;;5.30;3.65;;;;;;;;;;4881359;29;20025;-46
2021/06/09 14:06:43;;;;;;;4.82;3.63;;;;;;;;;;4881025;29;20508;-46
2021/06/09 14:09:10;;;;;;;7.05;4.50;;;;;;;;;;4881148;29;20032;-46
2021/06/09 14:11:56;;;;;;;6.07;3.22;;;;;;;;;;4880913;29;20069;-46
2021/06/09 14:14:22;;;;;;;5.40;3.75;;;;;;;;;;4879507;29;20053;-46
2021/06/09 14:17:03;;;;;;;7.00;3.88;;;;;;;;;;4880783;29;20017;-46
2021/06/09 14:19:29;;;;;;;4.28;3.88;;;;;;;;;;4880894;29;20037;-46
2021/06/09 14:21:54;;;;;;;4.50;4.10;;;;;;;;;;4880564;29;20039;-46
2021/06/09 14:24:20;;;;;;;5.70;3.58;;;;;;;;;;4880792;29;20029;-46
2021/06/09 14:26:48;;;;;;;4.38;3.75;;;;;;;;;;4880929;29;20025;-46
2021/06/09 14:29:13;;;;;;;5.13;4.15;;;;;;;;;;4880555;29;20040;-47
2021/06/09 14:31:38;;;;;;;5.03;4.47;;;;;;;;;;4880611;29;20033;-46
2021/06/09 14:34:19;;;;;;;6.57;4.28;;;;;;;;;;4880713;29;20056;-46
2021/06/09 14:36:52;;;;;;;4.60;4.00;;;;;;;;;;4880251;29;20033;-46
2021/06/09 14:39:18;;;;;;;;;;;;;;;;;;4881025;29;20044;-46
2021/06/09 14:41:46;;;;;;;5.93;3.80;;;;;;;;;;4880433;29;20271;-46
2021/06/09 14:44:37;;;;;;;7.30;4.07;;;;;;;;;;4880504;29;20037;-46
2021/06/09 14:49:35;;;;;;;4.93;3.65;;;;;;;;;;4878416;29;20029;-46